Terminal Aerodrome Forecast
Issued by NWS Louisville, KY

Home | Current Version | Previous Version | Text Only | Print | Product List | Glossary On
Versions: 1 2 3 4 5 6 7 8 9 10 11 12 13 14 15 16 17
000
FTUS43 KLMK 280200 AAA
TAFLEX
TAF AMD
KLEX 280204Z 2802/2824 26010G16KT P6SM BKN035
     FM280230 30015G25KT 3SM -TSRA BKN035CB
     FM280300 29008KT P6SM SCT050
     FM281000 29007KT P6SM BKN025
     FM281500 32011KT P6SM BKN040=

USA.gov is the U.S. government's official web portal to all federal, state and local government web resources and services.